首页
METAR-TAF:

METAR-TAF

机场 :

Mason City Municipal Airport

麦逊城, 艾奥瓦州, 美国

纬度: 43-09-28N, 经度: 093-19-53W, 海拔: 370米

当前天气观测

该预报发布于26分钟前的16:53 UTC
风速21节,风向,有时为34节阵风
温度 24°C
湿度 65%
气压 1013 hPa
能見度: 16.1公里
天空无云

METAR: KMCW 011653Z AUTO 19021G34KT 10SM CLR 24/17 A2992 RMK AO2 PK WND 18037/1627 SLP122 T02440167

时间: 12:19 (17:19 UTC)

预报

该预报发布于5小时和50分钟前的11:29 UTC
预报有效从01日的 12点(UTC)到 02日的 12点(UTC)
风速7节,风向
能見度: 10公里
多云层高于6000英尺, 积雨云.
阴天层高于8000英尺
附近有雷暴
从 01日的 1330点(UTC)
风速16节,风向
能見度: 10公里
多云层高于9000英尺
从 01日的 1800点(UTC)
风速18节,风向西南,有时为30节阵风
能見度: 10公里
少量云层高于25000英尺
从 02日的 0100点(UTC)
风速15节,风向西南
能見度: 10公里
少量云层高于25000英尺
从 02日的 0900点(UTC)
风速8节,风向西南
能見度: 10公里
少量云层高于25000英尺

TAF: KMCW 011129Z 0112/0212 09007KT P6SM VCTS BKN060CB OVC080 FM011330 18016KT P6SM BKN090 FM011800 22018G30KT P6SM FEW250 FM020100 22015KT P6SM FEW250 FM020900 23008KT P6SM FEW250

超过4000个机场的气象观测和天气预报(METAR&TAF报告)。

可查询的气象台以黄色和红色小点在地图上表示。

将鼠标移到小点上方,可查看气象台名称。

然后点击查看天气观测和预报。

如需切换地图:点击带黑十字的绿色按钮放大地图;点击带横线的绿色按钮缩小地图;或者点击绿色箭头查看邻近地区的地图。


METAR-TAF: